Time;durP1;ratioP1;P1;durP2;ratioP2;P2;SDS_P1;SDS_P2;PMS_P1;PMS_P2;Temp;Humidity;BMP_temperature;BMP_pressure;BME280_temperature;BME280_humidity;BME280_pressure;Samples;Min_cycle;Max_cycle;Signal;HPM_P1;HPM_P2
2024/03/04 00:00:56;;;;;;;0.40;0.40;;;;;;;;;;5095506;28;20020;-75
2024/03/04 00:03:23;;;;;;;0.40;0.40;;;;;;;;;;5103592;28;20133;-76
2024/03/04 00:05:49;;;;;;;0.30;0.30;;;;;;;;;;5095250;28;20022;-77
2024/03/04 00:08:16;;;;;;;0.40;0.20;;;;;;;;;;5096403;28;20020;-75
2024/03/04 00:10:42;;;;;;;0.40;0.38;;;;;;;;;;5101341;28;20032;-75
2024/03/04 00:13:08;;;;;;;0.40;0.40;;;;;;;;;;5103406;28;20056;-75
2024/03/04 00:15:34;;;;;;;0.30;0.30;;;;;;;;;;5075815;28;20044;-76
2024/03/04 00:18:00;;;;;;;0.40;0.40;;;;;;;;;;5094618;28;20028;-76
2024/03/04 00:20:26;;;;;;;1.70;0.60;;;;;;;;;;5094294;28;20401;-76
2024/03/04 00:22:52;;;;;;;0.50;0.40;;;;;;;;;;5095059;28;20016;-77
2024/03/04 00:25:18;;;;;;;0.47;0.47;;;;;;;;;;5105267;28;20461;-76
2024/03/04 00:27:45;;;;;;;0.82;0.52;;;;;;;;;;5083069;28;20089;-76
2024/03/04 00:30:12;;;;;;;0.73;0.73;;;;;;;;;;5094496;28;20177;-77
2024/03/04 00:32:38;;;;;;;0.40;0.40;;;;;;;;;;5101959;28;20056;-75
2024/03/04 00:35:10;;;;;;;0.32;0.32;;;;;;;;;;5081864;28;20036;-75
2024/03/04 00:37:36;;;;;;;0.35;0.30;;;;;;;;;;5095142;28;20012;-75
2024/03/04 00:40:06;;;;;;;0.55;0.47;;;;;;;;;;5094371;28;20027;-75
2024/03/04 00:42:33;;;;;;;0.40;0.40;;;;;;;;;;5068563;28;20023;-76
2024/03/04 00:45:02;;;;;;;0.60;0.60;;;;;;;;;;5094909;28;20484;-76
2024/03/04 00:47:29;;;;;;;0.40;0.40;;;;;;;;;;5078431;28;20017;-76
2024/03/04 00:49:55;;;;;;;0.30;0.30;;;;;;;;;;5093902;28;20024;-75
2024/03/04 00:52:21;;;;;;;1.25;0.60;;;;;;;;;;5095048;28;20357;-76
2024/03/04 00:54:47;;;;;;;0.40;0.40;;;;;;;;;;5094510;28;20561;-75
2024/03/04 00:57:14;;;;;;;0.20;0.20;;;;;;;;;;5094629;28;20032;-76
2024/03/04 00:59:40;;;;;;;0.20;0.20;;;;;;;;;;5094116;28;20456;-75
2024/03/04 01:02:06;;;;;;;0.20;0.20;;;;;;;;;;5076114;28;20393;-76
2024/03/04 01:04:32;;;;;;;1.15;0.63;;;;;;;;;;5094374;28;20020;-76
2024/03/04 01:06:58;;;;;;;2.08;0.77;;;;;;;;;;5102274;28;20084;-74
2024/03/04 01:09:25;;;;;;;1.05;0.70;;;;;;;;;;5093414;28;20108;-75
2024/03/04 01:11:53;;;;;;;1.00;0.65;;;;;;;;;;5094149;28;20035;-75
2024/03/04 01:14:19;;;;;;;0.60;0.40;;;;;;;;;;5098343;28;20112;-77
2024/03/04 01:16:49;;;;;;;0.50;0.40;;;;;;;;;;5123678;28;20125;-75
2024/03/04 01:19:15;;;;;;;1.30;0.80;;;;;;;;;;5131761;28;20019;-75
2024/03/04 01:21:41;;;;;;;0.80;0.80;;;;;;;;;;5128260;28;20045;-75
2024/03/04 01:24:07;;;;;;;1.20;1.00;;;;;;;;;;5124985;28;20020;-75
2024/03/04 01:26:34;;;;;;;1.42;1.00;;;;;;;;;;5108678;28;20020;-74
2024/03/04 01:29:00;;;;;;;1.30;1.02;;;;;;;;;;5093437;28;20060;-76
2024/03/04 01:31:26;;;;;;;1.38;0.80;;;;;;;;;;5092845;28;20032;-75
2024/03/04 01:33:53;;;;;;;0.63;0.57;;;;;;;;;;5092989;28;20026;-75
2024/03/04 01:36:19;;;;;;;0.47;0.40;;;;;;;;;;5093157;28;20425;-75
2024/03/04 01:38:45;;;;;;;1.23;0.60;;;;;;;;;;5092192;28;20100;-75
2024/03/04 01:41:11;;;;;;;1.60;0.77;;;;;;;;;;5092886;28;20068;-75
2024/03/04 01:43:38;;;;;;;1.42;0.60;;;;;;;;;;5092754;28;20377;-75
2024/03/04 01:46:04;;;;;;;2.13;1.10;;;;;;;;;;5092922;28;20022;-76
2024/03/04 01:48:30;;;;;;;1.20;0.70;;;;;;;;;;5100922;28;20095;-76
2024/03/04 01:50:57;;;;;;;1.10;1.00;;;;;;;;;;5092906;28;20020;-76
2024/03/04 01:53:23;;;;;;;0.57;0.57;;;;;;;;;;5095592;28;20095;-76
2024/03/04 01:55:53;;;;;;;0.80;0.73;;;;;;;;;;5098861;28;20093;-76
2024/03/04 01:58:20;;;;;;;1.08;0.50;;;;;;;;;;5091983;28;20383;-76
2024/03/04 02:00:48;;;;;;;0.65;0.60;;;;;;;;;;5092506;28;20022;-74
2024/03/04 02:03:16;;;;;;;1.20;0.60;;;;;;;;;;5093878;28;20062;-75
2024/03/04 02:05:46;;;;;;;0.93;0.50;;;;;;;;;;5093757;28;20047;-76
2024/03/04 02:08:13;;;;;;;0.73;0.63;;;;;;;;;;5098442;28;20020;-74
2024/03/04 02:10:39;;;;;;;0.98;0.63;;;;;;;;;;5118456;28;20149;-77
2024/03/04 02:13:07;;;;;;;1.58;0.85;;;;;;;;;;5114326;28;20035;-78
2024/03/04 02:15:36;;;;;;;0.65;0.55;;;;;;;;;;5106758;28;20568;-76
2024/03/04 02:18:02;;;;;;;0.88;0.70;;;;;;;;;;5073306;28;20054;-75
2024/03/04 02:20:30;;;;;;;0.80;0.55;;;;;;;;;;5077961;28;20024;-76
2024/03/04 02:22:56;;;;;;;1.00;0.70;;;;;;;;;;5091220;28;20016;-75
2024/03/04 02:25:22;;;;;;;0.65;0.50;;;;;;;;;;5080566;28;20016;-75
2024/03/04 02:27:49;;;;;;;0.60;0.50;;;;;;;;;;5093014;28;20351;-76
2024/03/04 02:30:15;;;;;;;0.57;0.57;;;;;;;;;;5082117;28;20024;-75
2024/03/04 02:32:42;;;;;;;0.45;0.40;;;;;;;;;;5093110;28;20028;-76
2024/03/04 02:35:08;;;;;;;0.98;0.75;;;;;;;;;;5092531;28;20012;-75
2024/03/04 02:37:35;;;;;;;0.52;0.50;;;;;;;;;;5096306;28;20023;-75
2024/03/04 02:40:04;;;;;;;1.63;0.70;;;;;;;;;;5094144;28;20521;-76
2024/03/04 02:42:33;;;;;;;0.60;0.50;;;;;;;;;;5073900;28;20024;-75
2024/03/04 02:44:59;;;;;;;0.70;0.55;;;;;;;;;;5092589;28;20069;-76
2024/03/04 02:47:25;;;;;;;1.40;0.80;;;;;;;;;;5092635;28;20158;-76
2024/03/04 02:49:51;;;;;;;0.82;0.70;;;;;;;;;;5107213;28;20016;-75
2024/03/04 02:52:17;;;;;;;1.10;0.68;;;;;;;;;;5108005;28;20026;-76
2024/03/04 02:54:43;;;;;;;0.63;0.60;;;;;;;;;;5093191;28;20028;-74
2024/03/04 02:57:10;;;;;;;1.35;0.73;;;;;;;;;;5091981;28;20024;-76
2024/03/04 02:59:37;;;;;;;0.50;0.43;;;;;;;;;;5091820;28;20309;-75
2024/03/04 03:02:05;;;;;;;0.80;0.80;;;;;;;;;;5093257;28;20016;-75
2024/03/04 03:04:31;;;;;;;0.63;0.50;;;;;;;;;;5092476;28;20534;-74
2024/03/04 03:06:57;;;;;;;0.50;0.50;;;;;;;;;;5092268;28;20050;-74
2024/03/04 03:09:24;;;;;;;0.47;0.40;;;;;;;;;;5091211;28;20556;-77
2024/03/04 03:11:50;;;;;;;1.20;0.57;;;;;;;;;;5092000;28;20087;-75
2024/03/04 03:14:16;;;;;;;0.85;0.50;;;;;;;;;;5074074;28;20024;-75
2024/03/04 03:16:42;;;;;;;0.85;0.60;;;;;;;;;;5072667;28;20048;-75
2024/03/04 03:19:08;;;;;;;0.63;0.50;;;;;;;;;;5091363;28;20020;-75
2024/03/04 03:21:34;;;;;;;0.52;0.52;;;;;;;;;;5091240;28;20024;-76
2024/03/04 03:24:00;;;;;;;0.95;0.50;;;;;;;;;;5090245;28;20375;-75
2024/03/04 03:26:27;;;;;;;1.45;0.68;;;;;;;;;;5072573;28;20463;-75
2024/03/04 03:28:53;;;;;;;0.50;0.50;;;;;;;;;;5091004;28;20080;-76
2024/03/04 03:31:21;;;;;;;1.25;0.65;;;;;;;;;;5096946;28;20048;-75
2024/03/04 03:33:47;;;;;;;0.77;0.50;;;;;;;;;;5096872;28;20139;-75
2024/03/04 03:36:13;;;;;;;0.68;0.57;;;;;;;;;;5077974;28;20032;-75
2024/03/04 03:38:39;;;;;;;0.90;0.50;;;;;;;;;;5077376;28;20035;-76
2024/03/04 03:41:05;;;;;;;0.88;0.70;;;;;;;;;;5095863;28;20501;-76
2024/03/04 03:43:31;;;;;;;0.82;0.60;;;;;;;;;;5096663;28;20168;-76
2024/03/04 03:45:57;;;;;;;0.68;0.60;;;;;;;;;;5095238;28;20080;-75
2024/03/04 03:48:25;;;;;;;1.33;0.73;;;;;;;;;;5095253;28;20092;-75
2024/03/04 03:50:51;;;;;;;0.50;0.50;;;;;;;;;;5095213;28;20020;-75
2024/03/04 03:53:18;;;;;;;1.02;0.63;;;;;;;;;;5111699;28;20020;-76
2024/03/04 03:55:44;;;;;;;0.68;0.60;;;;;;;;;;5085095;28;20122;-74
2024/03/04 03:58:11;;;;;;;0.90;0.68;;;;;;;;;;5096408;28;20028;-75
2024/03/04 04:00:39;;;;;;;0.75;0.75;;;;;;;;;;5078084;28;20114;-76
2024/03/04 04:03:05;;;;;;;1.20;0.82;;;;;;;;;;5095828;28;20020;-77
2024/03/04 04:05:31;;;;;;;0.70;0.70;;;;;;;;;;5077286;28;20020;-76
2024/03/04 04:08:00;;;;;;;1.08;0.60;;;;;;;;;;5079505;28;20016;-76
2024/03/04 04:10:26;;;;;;;0.88;0.77;;;;;;;;;;5089817;28;20078;-76
2024/03/04 04:12:52;;;;;;;0.75;0.50;;;;;;;;;;5111661;28;20156;-75
2024/03/04 04:15:18;;;;;;;1.38;0.93;;;;;;;;;;5117835;28;20058;-75
2024/03/04 04:17:45;;;;;;;2.10;1.33;;;;;;;;;;5083166;28;20089;-75
2024/03/04 04:20:12;;;;;;;2.42;1.35;;;;;;;;;;5117370;28;20500;-76
2024/03/04 04:22:40;;;;;;;1.48;1.30;;;;;;;;;;5129658;28;20038;-75
2024/03/04 04:25:06;;;;;;;3.22;1.63;;;;;;;;;;5123507;28;20036;-77
2024/03/04 04:27:32;;;;;;;3.38;1.30;;;;;;;;;;5098147;28;20124;-76
2024/03/04 04:29:59;;;;;;;4.22;1.52;;;;;;;;;;5072137;28;20021;-77
2024/03/04 04:32:27;;;;;;;3.22;1.25;;;;;;;;;;5093391;28;20089;-76
2024/03/04 04:34:53;;;;;;;4.07;1.10;;;;;;;;;;5108469;28;20020;-77
2024/03/04 04:37:19;;;;;;;3.20;1.60;;;;;;;;;;5106057;28;20084;-77
2024/03/04 04:39:45;;;;;;;2.03;1.35;;;;;;;;;;5106036;28;20007;-77
2024/03/04 04:42:12;;;;;;;1.98;1.25;;;;;;;;;;5109301;28;20146;-78
2024/03/04 04:44:38;;;;;;;2.60;1.27;;;;;;;;;;5103305;28;20096;-76
2024/03/04 04:47:04;;;;;;;1.83;1.45;;;;;;;;;;5095591;28;20027;-76
2024/03/04 04:49:30;;;;;;;1.30;1.17;;;;;;;;;;5097554;28;20047;-76
2024/03/04 04:51:56;;;;;;;2.45;1.80;;;;;;;;;;5102855;28;20493;-76
2024/03/04 04:54:23;;;;;;;1.70;1.10;;;;;;;;;;5103108;28;20032;-75
2024/03/04 04:56:49;;;;;;;4.15;1.95;;;;;;;;;;5099502;28;20020;-76
2024/03/04 04:59:16;;;;;;;2.70;1.75;;;;;;;;;;5109992;28;20031;-76
2024/03/04 05:01:42;;;;;;;2.60;1.63;;;;;;;;;;5115089;28;20027;-76
2024/03/04 05:04:08;;;;;;;3.25;1.52;;;;;;;;;;5106288;28;20027;-76
2024/03/04 05:06:34;;;;;;;4.22;1.88;;;;;;;;;;5102287;28;20035;-76
2024/03/04 05:09:00;;;;;;;3.03;1.75;;;;;;;;;;5095752;28;20023;-76
2024/03/04 05:11:27;;;;;;;2.72;1.70;;;;;;;;;;5094621;28;20097;-78
2024/03/04 05:13:53;;;;;;;3.28;1.70;;;;;;;;;;5094622;28;20095;-77
2024/03/04 05:16:20;;;;;;;2.92;1.75;;;;;;;;;;5094782;28;20027;-76
2024/03/04 05:18:46;;;;;;;3.00;2.25;;;;;;;;;;5094107;28;20028;-77
2024/03/04 05:21:12;;;;;;;3.92;2.53;;;;;;;;;;5095438;28;20066;-77
2024/03/04 05:23:39;;;;;;;4.00;2.78;;;;;;;;;;5076955;28;20020;-76
2024/03/04 05:26:05;;;;;;;3.92;2.83;;;;;;;;;;5094830;28;20046;-76
2024/03/04 05:28:31;;;;;;;5.07;3.28;;;;;;;;;;5105597;28;20020;-77
2024/03/04 05:30:57;;;;;;;7.00;3.53;;;;;;;;;;5108509;28;20016;-77
2024/03/04 05:33:23;;;;;;;5.13;3.33;;;;;;;;;;5094468;28;20798;-76
2024/03/04 05:35:50;;;;;;;5.88;3.92;;;;;;;;;;5087176;28;20028;-76
2024/03/04 05:38:16;;;;;;;6.63;4.28;;;;;;;;;;5093834;28;20415;-75
2024/03/04 05:40:42;;;;;;;9.02;4.93;;;;;;;;;;5092648;28;20122;-75
2024/03/04 05:43:08;;;;;;;9.70;5.53;;;;;;;;;;5075278;28;20097;-76
2024/03/04 05:45:34;;;;;;;10.02;6.45;;;;;;;;;;5093039;28;20016;-76
2024/03/04 05:48:00;;;;;;;11.55;7.22;;;;;;;;;;5093710;28;20019;-76
2024/03/04 05:50:26;;;;;;;11.38;6.95;;;;;;;;;;5091872;28;20099;-76
2024/03/04 05:52:53;;;;;;;13.48;8.27;;;;;;;;;;5075038;28;20331;-76
2024/03/04 05:55:19;;;;;;;14.23;7.78;;;;;;;;;;5102904;28;20043;-78
2024/03/04 05:57:46;;;;;;;10.15;7.10;;;;;;;;;;5100817;28;20441;-78
2024/03/04 06:00:14;;;;;;;10.07;6.72;;;;;;;;;;5092718;28;20032;-76
2024/03/04 06:02:40;;;;;;;12.95;7.90;;;;;;;;;;5097380;28;20027;-76
2024/03/04 06:05:07;;;;;;;12.25;7.53;;;;;;;;;;5104858;28;20467;-76
2024/03/04 06:07:33;;;;;;;13.65;7.70;;;;;;;;;;5093621;28;20111;-76
2024/03/04 06:09:59;;;;;;;10.93;7.00;;;;;;;;;;5092284;28;20390;-77
2024/03/04 06:12:26;;;;;;;12.73;8.20;;;;;;;;;;5092654;28;20035;-76
2024/03/04 06:14:52;;;;;;;10.70;7.75;;;;;;;;;;5092829;28;20078;-76
2024/03/04 06:17:19;;;;;;;12.73;8.50;;;;;;;;;;5093023;28;20435;-76
2024/03/04 06:19:45;;;;;;;14.05;8.98;;;;;;;;;;5092263;28;20027;-76
2024/03/04 06:22:12;;;;;;;12.27;8.35;;;;;;;;;;5092942;28;20382;-75
2024/03/04 06:24:39;;;;;;;12.85;8.05;;;;;;;;;;5100920;28;20020;-76
2024/03/04 06:27:06;;;;;;;11.80;8.10;;;;;;;;;;5093506;28;20016;-76
2024/03/04 06:29:35;;;;;;;14.20;8.90;;;;;;;;;;5074291;28;20115;-75
2024/03/04 06:32:05;;;;;;;13.63;8.65;;;;;;;;;;5083714;28;20024;-75
2024/03/04 06:34:32;;;;;;;13.70;8.68;;;;;;;;;;5103240;28;20031;-77
2024/03/04 06:36:58;;;;;;;17.63;10.88;;;;;;;;;;5089997;28;20046;-77
2024/03/04 06:39:25;;;;;;;15.90;9.88;;;;;;;;;;5093698;28;20024;-77
2024/03/04 06:41:52;;;;;;;14.35;9.02;;;;;;;;;;5098756;28;20622;-77
2024/03/04 06:44:18;;;;;;;12.60;8.68;;;;;;;;;;5092311;28;20024;-78
2024/03/04 06:46:44;;;;;;;11.32;7.97;;;;;;;;;;5079719;28;20023;-77
2024/03/04 06:49:11;;;;;;;12.35;8.30;;;;;;;;;;5095305;28;20020;-78
2024/03/04 06:51:37;;;;;;;14.52;9.50;;;;;;;;;;5069595;28;20024;-77
2024/03/04 06:54:04;;;;;;;14.07;9.27;;;;;;;;;;5105302;28;20020;-77
2024/03/04 06:56:30;;;;;;;19.33;11.93;;;;;;;;;;5095115;28;20024;-78
2024/03/04 06:59:00;;;;;;;15.35;11.13;;;;;;;;;;5104243;28;20004;-77
2024/03/04 07:01:26;;;;;;;14.57;10.38;;;;;;;;;;5101640;28;20041;-78
2024/03/04 07:03:53;;;;;;;24.33;14.48;;;;;;;;;;5133221;28;20012;-77
2024/03/04 07:06:19;;;;;;;19.60;12.80;;;;;;;;;;5103809;28;20076;-77
2024/03/04 07:08:46;;;;;;;18.33;12.70;;;;;;;;;;5115091;28;20031;-78
2024/03/04 07:11:13;;;;;;;16.60;12.07;;;;;;;;;;5099030;28;20028;-77
2024/03/04 07:13:40;;;;;;;16.48;12.48;;;;;;;;;;5106658;28;20107;-77
2024/03/04 07:16:07;;;;;;;18.33;12.13;;;;;;;;;;5098412;28;20012;-76
2024/03/04 07:18:36;;;;;;;23.95;15.77;;;;;;;;;;5091652;28;20100;-77
2024/03/04 07:21:02;;;;;;;28.05;16.63;;;;;;;;;;5121787;28;20038;-77
2024/03/04 07:23:31;;;;;;;25.38;17.10;;;;;;;;;;5091953;28;20027;-77
2024/03/04 07:25:57;;;;;;;21.73;15.43;;;;;;;;;;5093124;28;20047;-77
2024/03/04 07:28:23;;;;;;;22.65;14.85;;;;;;;;;;5109654;28;20030;-78
2024/03/04 07:30:49;;;;;;;29.42;17.40;;;;;;;;;;5104068;28;20028;-76
2024/03/04 07:33:15;;;;;;;27.05;18.58;;;;;;;;;;5081811;28;20093;-77
2024/03/04 07:35:42;;;;;;;28.00;17.50;;;;;;;;;;5085515;28;20124;-77
2024/03/04 07:38:09;;;;;;;26.02;15.15;;;;;;;;;;5092523;28;20407;-76
2024/03/04 07:40:35;;;;;;;20.83;14.75;;;;;;;;;;5071815;28;20016;-75
2024/03/04 07:43:02;;;;;;;18.35;12.65;;;;;;;;;;5092044;28;20039;-75
2024/03/04 07:45:29;;;;;;;18.92;11.88;;;;;;;;;;5091024;28;20016;-76
2024/03/04 07:47:56;;;;;;;18.10;12.23;;;;;;;;;;5073588;28;20030;-75
2024/03/04 07:50:23;;;;;;;23.70;17.50;;;;;;;;;;5101736;28;20475;-75
2024/03/04 07:52:49;;;;;;;25.90;16.70;;;;;;;;;;5103319;28;20026;-76
2024/03/04 07:55:26;;;;;;;26.52;15.77;;;;;;;;;;5111137;28;20127;-78
2024/03/04 07:57:53;;;;;;;26.52;16.13;;;;;;;;;;5109854;28;20028;-76
2024/03/04 08:00:19;;;;;;;23.65;14.95;;;;;;;;;;5091925;28;20559;-77
2024/03/04 08:02:45;;;;;;;26.88;17.55;;;;;;;;;;5094440;28;20031;-78
2024/03/04 08:05:12;;;;;;;23.10;15.73;;;;;;;;;;5094710;28;20024;-78
2024/03/04 08:07:38;;;;;;;29.80;17.25;;;;;;;;;;5092564;28;20455;-78
2024/03/04 08:10:08;;;;;;;29.58;17.08;;;;;;;;;;5101076;28;20458;-78
2024/03/04 08:12:37;;;;;;;27.58;17.67;;;;;;;;;;5082988;28;20032;-77
2024/03/04 08:15:04;;;;;;;26.73;19.48;;;;;;;;;;5094119;28;20030;-79
2024/03/04 08:17:32;;;;;;;27.45;18.00;;;;;;;;;;5097277;28;20024;-78
2024/03/04 08:19:59;;;;;;;25.58;16.80;;;;;;;;;;5095744;28;20016;-78
2024/03/04 08:22:25;;;;;;;29.10;20.02;;;;;;;;;;5098191;28;20020;-77
2024/03/04 08:24:51;;;;;;;26.77;17.67;;;;;;;;;;5112291;28;20021;-78
2024/03/04 08:27:17;;;;;;;23.10;15.73;;;;;;;;;;5080040;28;20058;-78
2024/03/04 08:29:43;;;;;;;23.15;16.50;;;;;;;;;;5094965;28;20024;-78
2024/03/04 08:32:09;;;;;;;22.40;15.07;;;;;;;;;;5097177;28;20024;-79
2024/03/04 08:34:35;;;;;;;27.67;17.90;;;;;;;;;;5099953;28;20110;-77
2024/03/04 08:37:03;;;;;;;23.60;16.10;;;;;;;;;;5101571;28;20083;-77
2024/03/04 08:39:29;;;;;;;24.15;16.58;;;;;;;;;;5097417;28;20392;-77
2024/03/04 08:41:55;;;;;;;28.67;18.38;;;;;;;;;;5107571;28;20027;-77
2024/03/04 08:44:21;;;;;;;24.35;16.52;;;;;;;;;;5098733;28;20109;-77
2024/03/04 08:46:47;;;;;;;21.10;14.25;;;;;;;;;;5094745;28;20478;-77
2024/03/04 08:49:13;;;;;;;21.42;14.98;;;;;;;;;;5094901;28;20039;-78
2024/03/04 08:51:40;;;;;;;23.73;15.93;;;;;;;;;;5095363;28;20020;-77
2024/03/04 08:54:07;;;;;;;23.23;16.10;;;;;;;;;;5078383;28;20405;-77
2024/03/04 08:56:33;;;;;;;23.35;16.70;;;;;;;;;;5099135;28;20066;-77
2024/03/04 08:58:59;;;;;;;24.20;15.98;;;;;;;;;;5092631;28;20093;-77
2024/03/04 09:01:32;;;;;;;19.77;14.57;;;;;;;;;;5097190;28;20055;-77
2024/03/04 09:03:58;;;;;;;;;;;;;;;;;;5095983;28;20023;-77
2024/03/04 09:06:24;;;;;;;23.92;16.13;;;;;;;;;;5084237;28;20267;-77
2024/03/04 09:08:50;;;;;;;21.45;15.20;;;;;;;;;;5101140;28;20036;-77
2024/03/04 09:11:17;;;;;;;25.33;17.35;;;;;;;;;;5104995;28;20144;-77
2024/03/04 09:13:43;;;;;;;23.60;14.75;;;;;;;;;;5097841;28;20016;-77
2024/03/04 09:16:09;;;;;;;20.80;14.07;;;;;;;;;;5111274;28;20049;-77
2024/03/04 09:18:39;;;;;;;24.52;14.55;;;;;;;;;;5096166;28;20021;-77
2024/03/04 09:21:07;;;;;;;27.63;18.88;;;;;;;;;;5095965;28;20043;-77
2024/03/04 09:23:33;;;;;;;24.23;15.95;;;;;;;;;;5094664;28;20405;-76
2024/03/04 09:25:59;;;;;;;26.17;17.08;;;;;;;;;;5077297;28;20111;-77
2024/03/04 09:28:25;;;;;;;30.20;17.73;;;;;;;;;;5094325;28;20020;-77
2024/03/04 09:30:51;;;;;;;23.23;15.38;;;;;;;;;;5077968;28;20032;-77
2024/03/04 09:33:17;;;;;;;29.85;18.30;;;;;;;;;;5103832;28;20028;-77
2024/03/04 09:35:43;;;;;;;25.65;15.30;;;;;;;;;;5114206;28;20020;-77
2024/03/04 09:38:09;;;;;;;22.65;15.60;;;;;;;;;;5116553;28;20053;-77
2024/03/04 09:40:36;;;;;;;27.27;18.02;;;;;;;;;;5102941;28;20050;-77
2024/03/04 09:43:04;;;;;;;25.02;16.40;;;;;;;;;;5105463;28;20032;-77
2024/03/04 09:45:31;;;;;;;22.77;13.82;;;;;;;;;;5085038;28;20130;-77
2024/03/04 09:47:58;;;;;;;24.48;16.58;;;;;;;;;;5095808;28;20419;-77
2024/03/04 09:50:25;;;;;;;27.50;16.70;;;;;;;;;;5104135;28;20060;-77
2024/03/04 09:52:54;;;;;;;25.55;16.00;;;;;;;;;;5102667;28;20024;-77
2024/03/04 09:55:20;;;;;;;30.20;17.83;;;;;;;;;;5094441;28;20021;-76
2024/03/04 09:57:46;;;;;;;26.08;17.13;;;;;;;;;;5094181;28;20031;-76
2024/03/04 10:00:20;;;;;;;26.13;16.05;;;;;;;;;;5094004;28;20035;-78
2024/03/04 10:02:46;;;;;;;31.35;17.10;;;;;;;;;;5093929;28;20013;-78
2024/03/04 10:05:13;;;;;;;26.10;17.33;;;;;;;;;;5084384;28;20363;-77
2024/03/04 10:07:40;;;;;;;26.95;17.08;;;;;;;;;;5083783;28;20098;-77
2024/03/04 10:10:14;;;;;;;26.05;16.38;;;;;;;;;;5093989;28;20103;-78
2024/03/04 10:12:40;;;;;;;29.80;18.23;;;;;;;;;;5094933;28;20517;-77
2024/03/04 10:15:06;;;;;;;27.70;16.98;;;;;;;;;;5075474;28;20494;-77
2024/03/04 10:17:33;;;;;;;30.15;18.05;;;;;;;;;;5093499;28;20036;-77
2024/03/04 10:19:59;;;;;;;26.52;16.65;;;;;;;;;;5093165;28;20043;-76
2024/03/04 10:22:25;;;;;;;22.27;14.52;;;;;;;;;;5093207;28;20378;-77
2024/03/04 10:25:02;;;;;;;20.58;14.18;;;;;;;;;;5095323;28;20490;-77
2024/03/04 10:27:28;;;;;;;24.80;15.32;;;;;;;;;;5095565;28;20359;-77
2024/03/04 10:30:09;;;;;;;27.65;17.58;;;;;;;;;;5076073;28;20024;-77
2024/03/04 10:32:45;;;;;;;24.00;15.88;;;;;;;;;;5083502;28;20394;-78
2024/03/04 10:35:11;;;;;;;26.88;17.00;;;;;;;;;;5094509;28;20020;-77
2024/03/04 10:37:37;;;;;;;28.35;16.75;;;;;;;;;;5102586;28;20027;-78
2024/03/04 10:40:04;;;;;;;28.38;15.38;;;;;;;;;;5081564;28;20344;-77
2024/03/04 10:42:30;;;;;;;27.92;16.80;;;;;;;;;;5105497;28;20024;-77
2024/03/04 10:44:57;;;;;;;25.60;16.77;;;;;;;;;;5102518;28;20133;-77
2024/03/04 10:47:23;;;;;;;26.02;16.08;;;;;;;;;;5091057;28;20477;-77
2024/03/04 10:49:50;;;;;;;27.17;19.02;;;;;;;;;;5085642;28;20092;-77
2024/03/04 10:52:17;;;;;;;25.85;16.60;;;;;;;;;;5087888;28;20032;-78
2024/03/04 10:54:46;;;;;;;25.10;15.95;;;;;;;;;;5116137;28;20032;-78
2024/03/04 10:57:27;;;;;;;23.52;15.23;;;;;;;;;;5097131;28;20024;-77
2024/03/04 10:59:59;;;;;;;23.65;15.45;;;;;;;;;;5091342;28;20355;-77
2024/03/04 11:02:44;;;;;;;22.27;14.93;;;;;;;;;;5118711;22;20028;-77
2024/03/04 11:05:11;;;;;;;21.77;14.82;;;;;;;;;;5048766;28;20060;-76
2024/03/04 11:07:47;;;;;;;23.70;15.10;;;;;;;;;;5055614;28;20025;-76
2024/03/04 11:10:16;;;;;;;19.13;12.85;;;;;;;;;;5056226;28;20022;-76
2024/03/04 11:12:44;;;;;;;23.40;14.52;;;;;;;;;;5049939;28;20021;-76
2024/03/04 11:15:11;;;;;;;23.00;14.30;;;;;;;;;;5034651;28;20036;-76
2024/03/04 11:17:42;;;;;;;24.50;15.45;;;;;;;;;;5035138;28;20025;-76
2024/03/04 11:20:09;;;;;;;22.38;14.57;;;;;;;;;;5019873;28;20123;-78
2024/03/04 11:22:37;;;;;;;24.35;15.55;;;;;;;;;;5036579;28;20104;-76
2024/03/04 11:25:03;;;;;;;21.23;14.35;;;;;;;;;;5039649;28;20033;-77
2024/03/04 11:27:30;;;;;;;20.95;12.63;;;;;;;;;;5035979;28;20045;-77
2024/03/04 11:29:57;;;;;;;20.08;13.38;;;;;;;;;;5020407;28;20018;-76
2024/03/04 11:32:29;;;;;;;26.38;15.32;;;;;;;;;;5013687;28;20029;-75
2024/03/04 11:34:59;;;;;;;27.10;14.30;;;;;;;;;;5034488;28;20382;-76
2024/03/04 11:37:32;;;;;;;23.38;14.93;;;;;;;;;;5033156;28;20663;-76
2024/03/04 11:40:03;;;;;;;18.98;12.82;;;;;;;;;;5032250;28;20026;-76
2024/03/04 11:42:33;;;;;;;17.20;10.25;;;;;;;;;;5032426;28;20030;-76
2024/03/04 11:44:59;;;;;;;26.70;14.60;;;;;;;;;;5045144;28;20028;-76
2024/03/04 11:47:30;;;;;;;20.25;14.07;;;;;;;;;;5032647;28;20021;-75
2024/03/04 11:49:57;;;;;;;17.90;11.15;;;;;;;;;;5032971;28;20101;-75
2024/03/04 11:52:24;;;;;;;18.30;11.38;;;;;;;;;;5036483;28;20356;-75
2024/03/04 11:54:51;;;;;;;16.45;10.38;;;;;;;;;;5036571;28;20022;-76
2024/03/04 11:57:17;;;;;;;21.33;13.88;;;;;;;;;;5039466;28;20041;-76
2024/03/04 11:59:58;;;;;;;18.20;13.10;;;;;;;;;;5045297;28;20025;-75
2024/03/04 12:02:25;;;;;;;17.05;11.00;;;;;;;;;;5032766;28;20056;-75
2024/03/04 12:04:52;;;;;;;20.63;13.85;;;;;;;;;;5050001;28;20028;-76
2024/03/04 12:07:18;;;;;;;17.60;11.75;;;;;;;;;;5040525;28;20021;-75
2024/03/04 12:09:44;;;;;;;18.50;12.35;;;;;;;;;;5024078;28;20446;-75
2024/03/04 12:12:13;;;;;;;18.00;11.25;;;;;;;;;;5045822;28;20033;-75
2024/03/04 12:14:39;;;;;;;18.25;12.18;;;;;;;;;;5036254;28;20017;-75
2024/03/04 12:17:37;;;;;;;16.80;11.23;;;;;;;;;;5036847;28;20032;-76
2024/03/04 12:20:03;;;;;;;19.10;12.30;;;;;;;;;;5036698;28;20052;-75
2024/03/04 12:22:29;;;;;;;19.75;12.77;;;;;;;;;;5036123;28;20376;-75
2024/03/04 12:25:03;;;;;;;23.52;13.85;;;;;;;;;;5035985;28;20017;-75
2024/03/04 12:27:30;;;;;;;18.13;12.77;;;;;;;;;;5035983;28;20045;-76
2024/03/04 12:30:09;;;;;;;16.67;11.88;;;;;;;;;;5042814;28;20361;-76
2024/03/04 12:32:36;;;;;;;18.20;12.15;;;;;;;;;;5043124;28;20109;-76
2024/03/04 12:35:02;;;;;;;18.10;11.43;;;;;;;;;;5037489;28;20094;-75
2024/03/04 12:37:31;;;;;;;17.30;11.02;;;;;;;;;;5036965;28;20448;-76
2024/03/04 12:39:57;;;;;;;20.20;12.48;;;;;;;;;;5042640;28;20421;-77
2024/03/04 12:42:23;;;;;;;17.85;11.65;;;;;;;;;;5035777;28;20396;-76
2024/03/04 12:44:50;;;;;;;21.65;13.52;;;;;;;;;;5022824;28;20076;-75
2024/03/04 12:47:16;;;;;;;22.40;13.57;;;;;;;;;;5025552;28;20444;-75
2024/03/04 12:49:43;;;;;;;20.08;12.60;;;;;;;;;;5036194;28;20109;-76
2024/03/04 12:52:10;;;;;;;22.88;13.77;;;;;;;;;;5039164;28;20037;-76
2024/03/04 12:54:37;;;;;;;21.02;13.23;;;;;;;;;;5038585;28;20447;-76
2024/03/04 12:57:03;;;;;;;20.92;13.23;;;;;;;;;;5038195;28;20025;-76
2024/03/04 12:59:29;;;;;;;17.73;11.82;;;;;;;;;;5042658;28;20396;-77
2024/03/04 13:01:55;;;;;;;21.30;13.75;;;;;;;;;;5044606;28;20018;-77
2024/03/04 13:04:21;;;;;;;19.55;13.40;;;;;;;;;;5043823;28;20029;-75
2024/03/04 13:06:47;;;;;;;18.73;12.30;;;;;;;;;;5034966;28;20021;-77
2024/03/04 13:09:15;;;;;;;18.92;12.32;;;;;;;;;;5062703;28;20024;-76
2024/03/04 13:11:41;;;;;;;17.73;12.65;;;;;;;;;;5032652;28;20025;-76
2024/03/04 13:14:08;;;;;;;24.90;13.95;;;;;;;;;;5047116;28;20614;-74
2024/03/04 13:16:40;;;;;;;20.27;13.73;;;;;;;;;;5042142;28;20483;-75
2024/03/04 13:19:06;;;;;;;18.17;12.60;;;;;;;;;;5048577;28;20037;-75
2024/03/04 13:21:32;;;;;;;24.27;14.50;;;;;;;;;;5035688;28;20497;-77
2024/03/04 13:23:58;;;;;;;23.42;15.02;;;;;;;;;;5035768;28;20033;-75
2024/03/04 13:26:25;;;;;;;23.55;14.93;;;;;;;;;;5036115;28;20105;-75
2024/03/04 13:28:52;;;;;;;23.50;14.30;;;;;;;;;;5015824;28;20032;-76
2024/03/04 13:31:18;;;;;;;21.40;13.88;;;;;;;;;;5033611;28;20045;-75
2024/03/04 13:33:44;;;;;;;26.23;15.60;;;;;;;;;;5035914;28;20022;-74
2024/03/04 13:36:10;;;;;;;20.17;13.18;;;;;;;;;;5046228;28;20029;-73
2024/03/04 13:38:36;;;;;;;24.15;14.13;;;;;;;;;;5036454;28;20037;-74
2024/03/04 13:41:02;;;;;;;20.70;13.27;;;;;;;;;;5034465;28;20022;-75
2024/03/04 13:43:29;;;;;;;18.95;11.13;;;;;;;;;;5047155;28;20029;-75
2024/03/04 13:45:55;;;;;;;17.70;10.70;;;;;;;;;;5051402;28;20025;-75
2024/03/04 13:48:21;;;;;;;20.30;12.45;;;;;;;;;;5045540;28;20073;-74
2024/03/04 13:50:47;;;;;;;16.58;10.65;;;;;;;;;;5042713;28;20025;-74
2024/03/04 13:53:16;;;;;;;21.95;12.50;;;;;;;;;;5043303;28;20029;-76
2024/03/04 13:55:42;;;;;;;17.55;11.45;;;;;;;;;;5045388;28;20109;-75
2024/03/04 13:58:09;;;;;;;19.00;11.85;;;;;;;;;;5045430;28;20032;-76
2024/03/04 14:00:35;;;;;;;19.35;11.27;;;;;;;;;;5035849;28;20040;-76
2024/03/04 14:03:01;;;;;;;18.02;10.88;;;;;;;;;;5041548;28;20034;-74
2024/03/04 14:05:27;;;;;;;13.93;8.70;;;;;;;;;;5050270;28;20025;-75
2024/03/04 14:07:53;;;;;;;16.73;10.45;;;;;;;;;;5040744;28;20026;-74
2024/03/04 14:10:19;;;;;;;23.35;12.30;;;;;;;;;;5042897;28;20446;-74
2024/03/04 14:12:45;;;;;;;21.85;13.88;;;;;;;;;;5045512;28;20033;-75
2024/03/04 14:15:15;;;;;;;22.30;13.40;;;;;;;;;;5045507;28;20040;-75
2024/03/04 14:17:41;;;;;;;19.33;11.85;;;;;;;;;;5044966;28;20032;-74
2024/03/04 14:20:10;;;;;;;18.02;12.10;;;;;;;;;;5040753;28;20057;-75
2024/03/04 14:22:36;;;;;;;20.77;13.10;;;;;;;;;;5040646;28;20801;-76
2024/03/04 14:25:03;;;;;;;18.95;11.60;;;;;;;;;;5025761;28;20730;-76
2024/03/04 14:27:29;;;;;;;17.95;11.45;;;;;;;;;;5034534;28;20017;-76